createdAt,value
2018-04-15T00:02:02.344Z,25.97
2018-04-15T00:05:07.999Z,25.60
2018-04-15T00:08:13.199Z,25.30
2018-04-15T00:11:18.857Z,25.30
2018-04-15T00:14:24.072Z,25.53
2018-04-15T00:17:29.505Z,27.13
2018-04-15T00:20:34.991Z,25.57
2018-04-15T00:23:40.924Z,25.13
2018-04-15T00:26:47.038Z,27.40
2018-04-15T00:29:52.786Z,27.30
2018-04-15T00:32:57.993Z,24.73
2018-04-15T00:36:03.205Z,25.97
2018-04-15T00:39:08.413Z,24.00
2018-04-15T00:42:13.644Z,24.43
2018-04-15T00:45:18.855Z,24.20
2018-04-15T00:48:24.126Z,24.97
2018-04-15T00:51:30.509Z,25.20
2018-04-15T00:54:36.326Z,23.07
2018-04-15T00:57:41.554Z,23.53
2018-04-15T01:00:46.477Z,24.87
2018-04-15T01:03:52.226Z,23.60
2018-04-15T01:06:57.159Z,27.53
2018-04-15T01:10:04.670Z,23.97
2018-04-15T01:13:10.201Z,22.30
2018-04-15T01:16:15.841Z,24.20
2018-04-15T01:19:20.772Z,22.57
2018-04-15T01:22:25.387Z,22.57
2018-04-15T01:25:31.345Z,22.30
2018-04-15T01:28:37.193Z,23.97
2018-04-15T01:31:42.398Z,22.37
2018-04-15T01:34:47.334Z,23.13
2018-04-15T01:37:52.585Z,22.50
2018-04-15T01:40:57.813Z,22.63
2018-04-15T01:44:04.005Z,22.30
2018-04-15T01:47:09.214Z,23.50
2018-04-15T01:50:14.861Z,23.37
2018-04-15T01:53:20.084Z,21.63
2018-04-15T01:56:24.952Z,21.10
2018-04-15T01:59:30.679Z,21.60
2018-04-15T02:02:36.797Z,21.63
2018-04-15T02:05:42.576Z,22.13
2018-04-15T02:08:47.781Z,22.57
2018-04-15T02:11:53.533Z,21.53
2018-04-15T02:14:58.732Z,21.53
2018-04-15T02:18:04.949Z,22.33
2018-04-15T02:21:11.706Z,20.97
2018-04-15T02:24:18.853Z,21.97
2018-04-15T02:27:24.725Z,22.80
2018-04-15T02:30:30.780Z,22.07
2018-04-15T02:33:36.185Z,21.97
2018-04-15T02:36:42.381Z,21.77
2018-04-15T02:39:48.509Z,21.63
2018-04-15T02:42:54.134Z,21.13
2018-04-15T02:46:00.282Z,21.20
2018-04-15T02:49:06.416Z,21.47
2018-04-15T02:52:11.629Z,21.27
2018-04-15T02:55:17.757Z,20.50
2018-04-15T02:58:22.990Z,21.13
2018-04-15T03:01:28.218Z,21.90
2018-04-15T03:04:33.446Z,21.50
2018-04-15T03:07:38.641Z,22.60
2018-04-15T03:10:44.062Z,20.63
2018-04-15T03:13:49.269Z,22.43
2018-04-15T03:16:56.253Z,19.87
2018-04-15T03:20:01.889Z,20.60
2018-04-15T03:23:08.533Z,22.67
2018-04-15T03:26:13.425Z,21.20
2018-04-15T03:29:19.069Z,20.77
2018-04-15T03:32:24.270Z,20.60
2018-04-15T03:35:29.485Z,20.97
2018-04-15T03:38:35.509Z,21.03
2018-04-15T03:41:40.746Z,20.20
2018-04-15T03:44:47.390Z,21.20
2018-04-15T03:47:53.007Z,20.80
2018-04-15T03:50:58.945Z,19.00
2018-04-15T03:54:03.837Z,20.57
2018-04-15T03:57:09.468Z,19.13
2018-04-15T04:00:15.414Z,19.40
2018-04-15T04:03:21.585Z,18.93
2018-04-15T04:06:26.822Z,18.50
2018-04-15T04:09:33.013Z,20.73
2018-04-15T04:12:39.133Z,20.07
2018-04-15T04:15:44.529Z,20.70
2018-04-15T04:19:01.653Z,19.93
2018-04-15T04:22:18.192Z,20.10
2018-04-15T04:25:29.985Z,20.53
2018-04-15T04:28:37.949Z,20.17
2018-04-15T04:31:43.585Z,19.20
2018-04-15T04:34:48.805Z,20.13
2018-04-15T04:37:53.732Z,19.47
2018-04-15T04:40:59.657Z,18.83
2018-04-15T04:44:04.865Z,17.73
2018-04-15T04:47:10.084Z,18.60
2018-04-15T04:50:15.293Z,19.73
2018-04-15T04:53:21.428Z,20.00
2018-04-15T04:56:27.070Z,18.50
2018-04-15T04:59:32.285Z,17.00
2018-04-15T05:02:37.490Z,17.60
2018-04-15T05:05:43.821Z,17.90
2018-04-15T05:08:49.781Z,17.07
2018-04-15T05:11:55.724Z,18.30
2018-04-15T05:15:02.747Z,18.13
2018-04-15T05:18:08.613Z,17.07
2018-04-15T05:21:14.562Z,16.00
2018-04-15T05:24:20.527Z,16.20
2018-04-15T05:27:26.494Z,16.60
2018-04-15T05:30:32.625Z,15.03
2018-04-15T05:33:37.844Z,15.87
2018-04-15T05:36:43.969Z,15.77
2018-04-15T05:39:49.180Z,16.33
2018-04-15T05:42:55.302Z,14.03
2018-04-15T05:46:00.917Z,15.47
2018-04-15T05:49:07.050Z,15.80
2018-04-15T05:52:13.183Z,15.53
2018-04-15T05:55:20.223Z,15.60
2018-04-15T05:58:26.249Z,14.83
2018-04-15T06:01:32.376Z,14.57
2018-04-15T06:04:38.511Z,14.97
2018-04-15T06:07:43.912Z,15.50
2018-04-15T06:10:49.141Z,15.10
2018-04-15T06:13:54.182Z,15.90
2018-04-15T06:16:59.596Z,14.27
2018-04-15T06:20:04.238Z,14.70
2018-04-15T06:23:09.885Z,14.93
2018-04-15T06:26:15.909Z,16.00
2018-04-15T06:29:21.934Z,15.17
2018-04-15T06:32:27.141Z,15.97
2018-04-15T06:35:33.317Z,14.80
2018-04-15T06:38:39.461Z,16.53
2018-04-15T06:41:45.578Z,16.50
2018-04-15T06:44:51.274Z,15.70
2018-04-15T06:47:56.238Z,14.37
2018-04-15T06:51:02.145Z,15.00
2018-04-15T06:54:07.358Z,16.63
2018-04-15T06:57:13.481Z,15.93
2018-04-15T07:00:18.702Z,17.37
2018-04-15T07:03:24.855Z,16.53
2018-04-15T07:06:30.857Z,16.87
2018-04-15T07:09:36.523Z,18.00
2018-04-15T07:12:42.793Z,17.70
2018-04-15T07:15:48.913Z,20.37
2018-04-15T07:18:55.038Z,20.43
2018-04-15T07:22:00.445Z,19.73
2018-04-15T07:25:05.789Z,20.27
2018-04-15T07:28:11.032Z,20.77
2018-04-15T07:31:17.155Z,21.30
2018-04-15T07:34:22.583Z,19.03
2018-04-15T07:37:27.803Z,22.07
2018-04-15T07:40:33.220Z,21.53
2018-04-15T07:43:38.441Z,20.20
2018-04-15T07:46:43.660Z,20.53
2018-04-15T07:49:49.573Z,22.33
2018-04-15T07:52:54.787Z,21.27
2018-04-15T07:56:00.442Z,22.47
2018-04-15T07:59:06.387Z,21.90
2018-04-15T08:02:11.798Z,22.30
2018-04-15T08:05:17.419Z,24.20
2018-04-15T08:08:22.633Z,21.10
2018-04-15T08:11:29.159Z,22.30
2018-04-15T08:14:34.653Z,22.33
2018-04-15T08:17:40.781Z,21.40
2018-04-15T08:20:46.818Z,22.60
2018-04-15T08:23:52.025Z,21.33
2018-04-15T08:26:57.653Z,20.87
2018-04-15T08:30:03.541Z,22.60
2018-04-15T08:33:09.670Z,22.03
2018-04-15T08:36:15.281Z,22.60
2018-04-15T08:39:21.142Z,20.23
2018-04-15T08:42:26.378Z,22.37
2018-04-15T08:45:31.611Z,22.80
2018-04-15T08:48:37.731Z,21.20
2018-04-15T08:51:42.929Z,21.10
2018-04-15T08:54:48.981Z,21.73
2018-04-15T08:57:54.880Z,20.90
2018-04-15T09:01:01.029Z,21.43
2018-04-15T09:04:06.853Z,20.20
2018-04-15T09:07:12.063Z,22.20
2018-04-15T09:10:17.821Z,21.90
2018-04-15T09:13:24.042Z,22.10
2018-04-15T09:16:29.868Z,21.87
2018-04-15T09:19:34.857Z,19.43
2018-04-15T09:22:40.689Z,19.87
2018-04-15T09:25:47.981Z,21.40
2018-04-15T09:28:53.189Z,21.03
2018-04-15T09:31:59.814Z,24.47
2018-04-15T09:35:05.454Z,23.73
2018-04-15T09:38:11.496Z,22.43
2018-04-15T09:41:16.697Z,21.13
2018-04-15T09:44:22.185Z,21.10
2018-04-15T09:47:27.597Z,22.60
2018-04-15T09:50:33.737Z,21.63
2018-04-15T09:53:39.769Z,22.80
2018-04-15T09:56:45.912Z,22.93
2018-04-15T09:59:51.779Z,21.90
2018-04-15T10:02:57.847Z,22.93
2018-04-15T10:06:03.699Z,21.70
2018-04-15T10:09:09.711Z,22.53
2018-04-15T10:12:15.134Z,23.13
2018-04-15T10:15:19.990Z,23.57
2018-04-15T10:18:25.710Z,23.33
2018-04-15T10:21:31.864Z,24.17
2018-04-15T10:24:37.057Z,24.10
2018-04-15T10:27:43.069Z,24.90
2018-04-15T10:30:48.664Z,24.10
2018-04-15T10:33:54.909Z,22.40
2018-04-15T10:37:00.741Z,23.30
2018-04-15T10:40:06.003Z,22.50
2018-04-15T10:43:11.252Z,23.17
2018-04-15T10:46:16.974Z,24.20
2018-04-15T10:49:23.137Z,24.40
2018-04-15T10:52:29.264Z,24.20
2018-04-15T10:55:34.485Z,22.53
2018-04-15T10:58:40.690Z,23.80
2018-04-15T11:01:45.918Z,23.03
2018-04-15T11:04:51.658Z,24.27
2018-04-15T11:07:56.878Z,24.13
2018-04-15T11:11:03.016Z,24.30
2018-04-15T11:14:09.102Z,24.77
2018-04-15T11:17:14.505Z,25.50
2018-04-15T11:20:20.536Z,23.90
2018-04-15T11:23:25.745Z,25.43
2018-04-15T11:26:31.904Z,25.60
2018-04-15T11:29:36.841Z,23.47
2018-04-15T11:32:42.509Z,24.23
2018-04-15T11:35:48.396Z,24.07
2018-04-15T11:38:53.614Z,26.50
2018-04-15T11:41:58.863Z,24.70
2018-04-15T11:45:05.129Z,25.53
2018-04-15T11:48:10.713Z,24.93
2018-04-15T11:51:15.930Z,25.80
2018-04-15T11:54:21.553Z,25.20
2018-04-15T11:57:26.784Z,26.93
2018-04-15T12:00:32.033Z,25.60
2018-04-15T12:03:37.950Z,25.77
2018-04-15T12:06:44.184Z,24.80
2018-04-15T12:09:50.033Z,25.53
2018-04-15T12:12:55.250Z,26.97
2018-04-15T12:16:00.606Z,25.90
2018-04-15T12:19:06.768Z,23.77
2018-04-15T12:22:12.940Z,27.67
2018-04-15T12:25:18.961Z,26.60
2018-04-15T12:28:24.169Z,26.87
2018-04-15T12:31:29.428Z,26.30
2018-04-15T12:34:35.565Z,26.73
2018-04-15T12:37:42.197Z,25.77
2018-04-15T12:40:48.018Z,25.77
2018-04-15T12:43:53.233Z,27.03
2018-04-15T12:46:59.286Z,26.90
2018-04-15T12:50:03.954Z,26.10
2018-04-15T12:53:10.069Z,25.80
2018-04-15T12:56:16.235Z,25.43
2018-04-15T12:59:21.448Z,25.40
2018-04-15T13:02:28.046Z,22.67
2018-04-15T13:05:32.995Z,25.17
2018-04-15T13:08:38.249Z,24.63
2018-04-15T13:11:43.464Z,24.40
2018-04-15T13:14:48.404Z,26.30
2018-04-15T13:17:54.524Z,24.77
2018-04-15T13:21:00.666Z,24.70
2018-04-15T13:24:06.831Z,25.03
2018-04-15T13:27:12.877Z,24.23
2018-04-15T13:30:18.094Z,23.83
2018-04-15T13:33:24.122Z,27.23
2018-04-15T13:36:30.185Z,28.77
2018-04-15T13:39:36.121Z,25.77
2018-04-15T13:42:42.056Z,25.30
2018-04-15T13:45:47.929Z,25.00
2018-04-15T13:48:53.174Z,23.90
2018-04-15T13:51:59.220Z,24.20
2018-04-15T13:55:05.033Z,24.50
2018-04-15T13:58:10.722Z,24.43
2018-04-15T14:01:15.959Z,24.20
2018-04-15T14:04:21.188Z,24.60
2018-04-15T14:07:27.044Z,24.37
2018-04-15T14:10:32.283Z,24.77
2018-04-15T14:13:37.488Z,23.67
2018-04-15T14:16:42.732Z,23.60
2018-04-15T14:19:47.959Z,23.87
2018-04-15T14:22:53.169Z,24.10
2018-04-15T14:25:58.404Z,24.70
2018-04-15T14:29:03.613Z,23.20
2018-04-15T14:32:08.838Z,24.07
2018-04-15T14:35:14.055Z,23.80
2018-04-15T14:38:19.279Z,24.47
2018-04-15T14:41:24.257Z,23.70
2018-04-15T14:44:29.477Z,24.40
2018-04-15T14:47:34.702Z,24.03
2018-04-15T14:50:40.518Z,26.73
2018-04-15T14:53:45.723Z,23.87
2018-04-15T14:56:50.944Z,24.80
2018-04-15T14:59:56.972Z,25.33
2018-04-15T15:03:02.199Z,25.50
2018-04-15T15:06:07.417Z,26.73
2018-04-15T15:09:14.520Z,26.20
2018-04-15T15:12:21.376Z,25.33
2018-04-15T15:15:27.027Z,25.30
2018-04-15T15:18:32.397Z,26.90
2018-04-15T15:21:37.345Z,28.83
2018-04-15T15:24:42.825Z,25.00
2018-04-15T15:27:47.566Z,25.13
2018-04-15T15:30:54.250Z,26.37
2018-04-15T15:33:59.614Z,29.30
2018-04-15T15:37:05.087Z,26.10
2018-04-15T15:40:10.015Z,26.77
2018-04-15T15:43:15.784Z,27.50
2018-04-15T15:46:21.020Z,26.23
2018-04-15T15:49:26.159Z,25.30
2018-04-15T15:52:31.840Z,27.07
2018-04-15T15:55:37.680Z,26.07
2018-04-15T15:58:43.026Z,26.53
2018-04-15T16:01:48.591Z,25.47
2018-04-15T16:04:53.518Z,24.63
2018-04-15T16:07:58.898Z,26.63
2018-04-15T16:11:03.891Z,25.97
2018-04-15T16:14:08.812Z,26.27
2018-04-15T16:17:14.204Z,25.00
2018-04-15T16:20:19.157Z,27.37
2018-04-15T16:23:24.766Z,24.67
2018-04-15T16:26:29.497Z,26.20
2018-04-15T16:29:35.154Z,27.10
2018-04-15T16:32:40.081Z,24.60
2018-04-15T16:35:45.048Z,25.20
2018-04-15T16:38:50.993Z,25.13
2018-04-15T16:41:55.929Z,25.30
2018-04-15T16:45:01.823Z,25.47
2018-04-15T16:48:07.691Z,28.00
2018-04-15T16:51:12.655Z,25.80
2018-04-15T16:54:19.490Z,26.13
2018-04-15T16:57:24.563Z,25.50
2018-04-15T17:00:29.925Z,25.60
2018-04-15T17:03:35.085Z,26.97
2018-04-15T17:06:40.024Z,25.93
2018-04-15T17:09:45.363Z,24.77
2018-04-15T17:12:52.169Z,24.97
2018-04-15T17:15:58.424Z,22.37
2018-04-15T17:19:03.778Z,23.70
2018-04-15T17:22:08.730Z,25.47
2018-04-15T17:25:14.514Z,25.90
2018-04-15T17:28:20.623Z,24.00
2018-04-15T17:31:27.096Z,24.60
2018-04-15T17:34:32.468Z,24.77
2018-04-15T17:37:37.681Z,23.07
2018-04-15T17:40:43.554Z,23.83
2018-04-15T17:43:48.544Z,23.00
2018-04-15T17:46:54.159Z,25.30
2018-04-15T17:50:00.018Z,22.10
2018-04-15T17:53:04.985Z,22.27
2018-04-15T17:56:10.122Z,22.90
2018-04-15T17:59:16.513Z,22.97
2018-04-15T18:02:21.868Z,22.70
2018-04-15T18:05:27.029Z,21.70
2018-04-15T18:08:32.149Z,23.40
2018-04-15T18:11:37.607Z,22.00
2018-04-15T18:14:42.545Z,21.73
2018-04-15T18:17:47.913Z,21.67
2018-04-15T18:20:52.882Z,22.03
2018-04-15T18:23:58.020Z,21.63
2018-04-15T18:27:02.964Z,20.50
2018-04-15T18:30:08.520Z,20.17
2018-04-15T18:33:13.457Z,20.57
2018-04-15T18:36:18.921Z,21.93
2018-04-15T18:39:25.002Z,21.90
2018-04-15T18:42:30.862Z,21.77
2018-04-15T18:45:35.798Z,20.10
2018-04-15T18:48:41.458Z,20.83
2018-04-15T18:51:46.389Z,20.70
2018-04-15T18:54:51.629Z,21.87
2018-04-15T18:57:56.999Z,19.80
2018-04-15T19:01:01.941Z,19.33
2018-04-15T19:04:07.497Z,21.33
2018-04-15T19:07:13.361Z,20.50
2018-04-15T19:10:18.308Z,20.00
2018-04-15T19:13:24.065Z,19.80
2018-04-15T19:16:29.966Z,22.00
2018-04-15T19:19:34.661Z,22.63
2018-04-15T19:22:40.530Z,20.80
2018-04-15T19:25:45.466Z,21.53
2018-04-15T19:28:50.922Z,22.13
2018-04-15T19:31:56.786Z,22.50
2018-04-15T19:35:02.016Z,23.27
2018-04-15T19:38:07.464Z,22.67
2018-04-15T19:41:13.499Z,20.47
2018-04-15T19:44:18.623Z,22.10
2018-04-15T19:47:23.987Z,22.17
2018-04-15T19:50:28.973Z,23.07
2018-04-15T19:53:34.324Z,22.30
2018-04-15T19:56:39.319Z,21.73
2018-04-15T19:59:44.792Z,23.33
2018-04-15T20:02:49.771Z,23.73
2018-04-15T20:05:55.783Z,24.00
2018-04-15T20:09:00.720Z,23.60
2018-04-15T20:12:06.478Z,22.60
2018-04-15T20:15:11.415Z,23.20
2018-04-15T20:18:16.853Z,22.40
2018-04-15T20:21:22.720Z,23.97
2018-04-15T20:24:28.113Z,24.57
2018-04-15T20:27:34.901Z,26.40
2018-04-15T20:30:39.845Z,28.43
2018-04-15T20:33:45.611Z,24.83
2018-04-15T20:36:51.998Z,25.30
2018-04-15T20:39:57.384Z,23.10
2018-04-15T20:43:02.317Z,25.10
2018-04-15T20:46:07.775Z,24.80
2018-04-15T20:49:13.636Z,25.37
2018-04-15T20:52:19.397Z,26.33
2018-04-15T20:55:25.281Z,25.70
2018-04-15T20:58:31.291Z,25.03
2018-04-15T21:01:36.437Z,27.43
2018-04-15T21:04:41.661Z,25.50
2018-04-15T21:07:46.594Z,24.17
2018-04-15T21:10:51.581Z,25.60
2018-04-15T21:13:56.516Z,27.00
2018-04-15T21:17:01.852Z,24.97
2018-04-15T21:20:07.070Z,26.03
2018-04-15T21:23:12.029Z,27.73
2018-04-15T21:26:17.258Z,25.83
2018-04-15T21:29:22.717Z,25.90
2018-04-15T21:32:27.665Z,24.70
2018-04-15T21:35:32.597Z,26.27
2018-04-15T21:38:37.323Z,25.70
2018-04-15T21:41:42.425Z,25.77
2018-04-15T21:44:47.377Z,25.40
2018-04-15T21:47:52.984Z,26.60
2018-04-15T21:50:57.917Z,23.93
2018-04-15T21:54:03.466Z,22.83
2018-04-15T21:57:09.409Z,24.27
2018-04-15T22:00:14.653Z,24.37
2018-04-15T22:03:19.573Z,22.07
2018-04-15T22:06:24.965Z,21.53
2018-04-15T22:09:29.574Z,23.40
2018-04-15T22:12:35.226Z,22.43
2018-04-15T22:15:41.015Z,22.60
2018-04-15T22:18:46.684Z,22.13
2018-04-15T22:21:52.441Z,22.47
2018-04-15T22:24:57.034Z,21.47
2018-04-15T22:28:01.975Z,22.33
2018-04-15T22:31:07.748Z,19.83
2018-04-15T22:34:13.857Z,22.00
2018-04-15T22:37:19.629Z,20.63
2018-04-15T22:40:25.297Z,21.37
2018-04-15T22:43:31.171Z,23.07
2018-04-15T22:46:37.125Z,21.70
2018-04-15T22:49:43.345Z,20.57
2018-04-15T22:52:48.278Z,21.17
2018-04-15T22:55:52.977Z,21.10
2018-04-15T22:58:57.953Z,21.17
2018-04-15T23:02:03.773Z,20.60
2018-04-15T23:05:08.712Z,20.63
2018-04-15T23:08:14.545Z,22.20
2018-04-15T23:11:20.290Z,20.10
2018-04-15T23:14:25.656Z,21.20
2018-04-15T23:17:31.961Z,19.40
2018-04-15T23:20:37.875Z,19.37
2018-04-15T23:23:43.091Z,20.90
2018-04-15T23:26:48.305Z,18.83
2018-04-15T23:29:53.508Z,18.77
2018-04-15T23:32:59.312Z,19.70
2018-04-15T23:36:04.732Z,19.90
2018-04-15T23:39:09.958Z,18.20
2018-04-15T23:42:15.896Z,20.27
2018-04-15T23:45:21.929Z,17.83
2018-04-15T23:48:27.185Z,18.83
2018-04-15T23:51:33.534Z,19.40
2018-04-15T23:54:39.477Z,17.80
2018-04-15T23:57:45.374Z,18.27
